Time;durP1;ratioP1;P1;durP2;ratioP2;P2;SDS_P1;SDS_P2;PMS_P1;PMS_P2;Temp;Humidity;BMP_temperature;BMP_pressure;BME280_temperature;BME280_humidity;BME280_pressure;Samples;Min_cycle;Max_cycle;Signal;HPM_P1;HPM_P2
2023/04/16 00:01:54;;;;;;;;;;;;;;;12.15;77.41;102124.00;7359275;19;19927;-62
2023/04/16 00:04:21;;;;;;;;;;;;;;;12.17;77.47;102123.91;7357148;19;20340;-61
2023/04/16 00:06:48;;;;;;;;;;;;;;;12.15;77.60;102121.38;7360143;19;20326;-62
2023/04/16 00:09:15;;;;;;;;;;;;;;;12.15;78.32;102123.19;7361362;19;20534;-62
2023/04/16 00:11:42;;;;;;;;;;;;;;;12.13;77.98;102128.59;7357275;19;19919;-61
2023/04/16 00:14:09;;;;;;;;;;;;;;;12.11;78.49;102134.97;7360083;19;19918;-62
2023/04/16 00:16:37;;;;;;;;;;;;;;;12.09;78.79;102121.09;7355248;19;19919;-61
2023/04/16 00:19:04;;;;;;;;;;;;;;;12.10;79.33;102126.22;7357217;19;19956;-61
2023/04/16 00:21:30;;;;;;;;;;;;;;;12.09;79.30;102124.53;7359019;19;20075;-62
2023/04/16 00:23:57;;;;;;;;;;;;;;;12.08;79.45;102122.03;7359995;19;19918;-62
2023/04/16 00:26:24;;;;;;;;;;;;;;;12.07;79.88;102121.22;7360091;19;19938;-63
2023/04/16 00:28:51;;;;;;;;;;;;;;;12.09;79.29;102121.91;7356979;19;20913;-61
2023/04/16 00:31:24;;;;;;;;;;;;;;;12.09;78.02;102119.25;7356281;19;19950;-61
2023/04/16 00:33:52;;;;;;;;;;;;;;;12.10;78.08;102125.38;7357360;19;20225;-61
2023/04/16 00:36:19;;;;;;;;;;;;;;;12.09;77.11;102126.38;7361715;19;19922;-63
2023/04/16 00:38:45;;;;;;;;;;;;;;;12.09;76.72;102118.44;7362733;19;19927;-62
2023/04/16 00:41:12;;;;;;;;;;;;;;;12.08;77.07;102122.03;7364663;19;19914;-61
2023/04/16 00:43:39;;;;;;;;;;;;;;;12.08;76.36;102127.31;7363673;19;19922;-61
2023/04/16 00:46:07;;;;;;;;;;;;;;;12.07;76.02;102121.22;7363770;19;19923;-62
2023/04/16 00:48:35;;;;;;;;;;;;;;;12.07;75.47;102129.13;7363744;19;19918;-61
2023/04/16 00:51:03;;;;;;;;;;;;;;;12.06;74.91;102121.31;7365303;19;19927;-62
2023/04/16 00:53:31;;;;;;;;;;;;;;;12.06;75.62;102126.59;7362938;19;19915;-62
2023/04/16 00:55:58;;;;;;;;;;;;;;;12.07;75.75;102125.66;7362404;19;19923;-61
2023/04/16 00:58:24;;;;;;;;;;;;;;;12.07;76.85;102118.56;7362008;19;20325;-61
2023/04/16 01:00:51;;;;;;;;;;;;;;;12.07;75.87;102121.22;7361567;19;19919;-62
2023/04/16 01:03:18;;;;;;;;;;;;;;;12.06;75.16;102121.31;7361562;19;19923;-62
2023/04/16 01:05:48;;;;;;;;;;;;;;;12.05;76.11;102115.22;7361905;19;19929;-61
2023/04/16 01:08:16;;;;;;;;;;;;;;;12.05;75.47;102117.00;7362434;19;19923;-61
2023/04/16 01:10:43;;;;;;;;;;;;;;;12.05;76.81;102112.56;7362742;19;19940;-62
2023/04/16 01:13:10;;;;;;;;;;;;;;;12.03;76.06;102111.03;7363120;19;19915;-61
2023/04/16 01:15:37;;;;;;;;;;;;;;;12.03;76.05;102113.69;7364233;19;19914;-60
2023/04/16 01:18:14;;;;;;;;;;;;;;;12.00;75.93;102109.50;7363661;19;20364;-60
2023/04/16 01:20:40;;;;;;;;;;;;;;;11.99;75.08;102107.81;7363661;19;20427;-63
2023/04/16 01:23:08;;;;;;;;;;;;;;;11.97;75.38;102105.31;7366472;19;19930;-60
2023/04/16 01:25:34;;;;;;;;;;;;;;;11.97;74.68;102113.25;7359803;19;19915;-62
2023/04/16 01:28:01;;;;;;;;;;;;;;;11.98;76.09;102112.28;7363133;19;20457;-63
2023/04/16 01:30:28;;;;;;;;;;;;;;;11.97;75.81;102107.13;7364138;19;19919;-63
2023/04/16 01:32:56;;;;;;;;;;;;;;;11.96;75.15;102119.47;7361728;19;20595;-62
2023/04/16 01:35:23;;;;;;;;;;;;;;;11.95;74.96;102112.53;7360920;19;19923;-61
2023/04/16 01:37:50;;;;;;;;;;;;;;;11.96;75.09;102108.09;7363327;19;19964;-61
2023/04/16 01:40:17;;;;;;;;;;;;;;;11.95;74.60;102109.03;7362848;19;19923;-62
2023/04/16 01:42:44;;;;;;;;;;;;;;;11.93;74.55;102109.19;7362769;19;19933;-61
2023/04/16 01:45:11;;;;;;;;;;;;;;;11.91;75.05;102111.13;7366375;19;20206;-61
2023/04/16 01:47:38;;;;;;;;;;;;;;;11.92;74.66;102109.31;7356435;19;19915;-60
2023/04/16 01:50:05;;;;;;;;;;;;;;;11.91;74.73;102108.47;7360311;19;19927;-61
2023/04/16 01:52:32;;;;;;;;;;;;;;;11.89;74.85;102112.19;7361579;19;20338;-61
2023/04/16 01:54:59;;;;;;;;;;;;;;;11.86;74.71;102105.41;7362574;19;20294;-61
2023/04/16 01:57:26;;;;;;;;;;;;;;;11.84;74.74;102109.09;7361231;19;19918;-60
2023/04/16 01:59:52;;;;;;;;;;;;;;;11.85;76.92;102108.16;7362692;19;19954;-60
2023/04/16 02:02:26;;;;;;;;;;;;;;;11.82;76.32;102109.25;7364146;19;19937;-60
2023/04/16 02:04:54;;;;;;;;;;;;;;;11.80;76.15;102100.63;7364027;19;19929;-61
2023/04/16 02:07:21;;;;;;;;;;;;;;;11.77;76.52;102100.06;7359207;19;19926;-61
2023/04/16 02:09:49;;;;;;;;;;;;;;;11.76;76.74;102101.84;7361229;19;19926;-62
2023/04/16 02:12:16;;;;;;;;;;;;;;;11.76;76.53;102098.38;7362034;19;19915;-64
2023/04/16 02:14:43;;;;;;;;;;;;;;;11.72;75.52;102095.16;7365443;19;19923;-62
2023/04/16 02:17:10;;;;;;;;;;;;;;;11.72;75.71;102096.94;7362434;19;20423;-63
2023/04/16 02:19:37;;;;;;;;;;;;;;;11.69;75.47;102100.66;7363379;19;20594;-61
2023/04/16 02:22:04;;;;;;;;;;;;;;;11.68;76.60;102099.00;7357164;19;19944;-61
2023/04/16 02:24:31;;;;;;;;;;;;;;;11.69;75.85;102100.66;7359880;19;19915;-61
2023/04/16 02:26:57;;;;;;;;;;;;;;;11.69;75.18;102094.53;7362365;19;19923;-66
2023/04/16 02:29:24;;;;;;;;;;;;;;;11.68;75.18;102098.16;7361889;19;19951;-63
2023/04/16 02:31:54;;;;;;;;;;;;;;;11.69;75.06;102097.19;7360834;19;19951;-61
2023/04/16 02:34:20;;;;;;;;;;;;;;;11.71;76.42;102097.91;7361908;19;19919;-62
2023/04/16 02:36:47;;;;;;;;;;;;;;;11.70;75.27;102098.84;7360035;19;19918;-60
2023/04/16 02:39:14;;;;;;;;;;;;;;;11.70;74.33;102104.13;7360658;19;19926;-63
2023/04/16 02:41:41;;;;;;;;;;;;;;;11.70;74.59;102088.31;7360670;19;20388;-60
2023/04/16 02:44:08;;;;;;;;;;;;;;;11.70;74.47;102089.16;7362366;19;20021;-63
2023/04/16 02:46:34;;;;;;;;;;;;;;;11.70;74.40;102090.94;7360015;19;21154;-62
2023/04/16 02:49:01;;;;;;;;;;;;;;;11.69;75.20;102087.47;7361583;19;19914;-61
2023/04/16 02:51:28;;;;;;;;;;;;;;;11.70;74.89;102088.31;7358642;19;20237;-62
2023/04/16 02:53:55;;;;;;;;;;;;;;;11.69;75.39;102087.47;7356769;19;19939;-62
2023/04/16 02:56:22;;;;;;;;;;;;;;;11.69;76.09;102081.38;7360109;19;19957;-61
2023/04/16 02:58:48;;;;;;;;;;;;;;;11.67;74.76;102089.41;7359837;19;20451;-61
2023/04/16 03:01:15;;;;;;;;;;;;;;;11.68;75.87;102083.19;7359086;19;19919;-60
2023/04/16 03:03:42;;;;;;;;;;;;;;;11.69;75.26;102079.56;7362397;19;20253;-61
2023/04/16 03:06:09;;;;;;;;;;;;;;;11.70;77.11;102080.41;7359725;19;20355;-62
2023/04/16 03:08:38;;;;;;;;;;;;;;;11.70;76.11;102083.03;7360882;19;19927;-62
2023/04/16 03:11:06;;;;;;;;;;;;;;;11.68;76.07;102080.56;7361757;19;19919;-62
2023/04/16 03:13:33;;;;;;;;;;;;;;;11.69;76.34;102090.13;7360456;19;19915;-61
2023/04/16 03:15:59;;;;;;;;;;;;;;;11.66;75.38;102090.38;7359201;19;19934;-62
2023/04/16 03:18:26;;;;;;;;;;;;;;;11.68;77.52;102088.47;7361903;19;19991;-63
2023/04/16 03:20:53;;;;;;;;;;;;;;;11.65;76.23;102085.22;7362533;19;19922;-62
2023/04/16 03:23:20;;;;;;;;;;;;;;;11.64;76.20;102086.19;7361364;19;20023;-61
2023/04/16 03:25:47;;;;;;;;;;;;;;;11.65;77.34;102093.97;7359409;19;20372;-61
2023/04/16 03:28:14;;;;;;;;;;;;;;;11.65;77.21;102095.78;7360599;19;19947;-59
2023/04/16 03:30:41;;;;;;;;;;;;;;;11.66;78.73;102090.38;7360278;19;19922;-61
2023/04/16 03:33:07;;;;;;;;;;;;;;;11.64;77.19;102094.09;7359564;19;21277;-62
2023/04/16 03:35:34;;;;;;;;;;;;;;;11.64;76.89;102094.09;7359365;19;19925;-62
2023/04/16 03:38:01;;;;;;;;;;;;;;;11.63;77.21;102092.44;7358790;19;19939;-60
2023/04/16 03:40:28;;;;;;;;;;;;;;;11.63;77.12;102089.81;7358465;19;19926;-62
2023/04/16 03:42:55;;;;;;;;;;;;;;;11.62;77.04;102091.59;7360973;19;19923;-61
2023/04/16 03:45:22;;;;;;;;;;;;;;;11.61;76.96;102097.00;7357438;19;19941;-61
2023/04/16 03:47:51;;;;;;;;;;;;;;;11.62;76.60;102090.78;7357200;19;20203;-61
2023/04/16 03:50:18;;;;;;;;;;;;;;;11.59;76.79;102091.84;7357812;19;19915;-61
2023/04/16 03:52:48;;;;;;;;;;;;;;;11.58;76.77;102098.91;7355544;19;19950;-61
2023/04/16 03:55:14;;;;;;;;;;;;;;;11.55;77.30;102093.91;7357811;19;19925;-62
2023/04/16 03:57:41;;;;;;;;;;;;;;;11.53;77.59;102093.19;7359637;19;20337;-62
2023/04/16 04:00:08;;;;;;;;;;;;;;;11.52;77.68;102094.19;7360054;19;19911;-61
2023/04/16 04:02:35;;;;;;;;;;;;;;;11.48;77.99;102082.19;7357753;19;19923;-61
2023/04/16 04:05:02;;;;;;;;;;;;;;;11.50;77.95;102092.63;7359295;19;20289;-62
2023/04/16 04:07:29;;;;;;;;;;;;;;;11.51;78.83;102086.38;7357019;19;20317;-61
2023/04/16 04:09:56;;;;;;;;;;;;;;;11.56;79.10;102092.13;7358136;19;19998;-63
2023/04/16 04:12:23;;;;;;;;;;;;;;;11.58;78.75;102096.28;7356599;19;20243;-62
2023/04/16 04:14:50;;;;;;;;;;;;;;;11.58;78.59;102092.81;7359718;19;19930;-61
2023/04/16 04:17:17;;;;;;;;;;;;;;;11.61;78.74;102091.72;7357066;19;20050;-62
2023/04/16 04:19:44;;;;;;;;;;;;;;;11.62;79.02;102091.59;7357583;19;19922;-62
2023/04/16 04:22:26;;;;;;;;;;;;;;;11.65;79.87;102093.13;7357702;19;19942;-61
2023/04/16 04:24:52;;;;;;;;;;;;;;;11.67;79.30;102091.22;7360368;19;19927;-62
2023/04/16 04:27:19;;;;;;;;;;;;;;;11.64;78.77;102086.19;7355578;19;19934;-63
2023/04/16 04:29:46;;;;;;;;;;;;;;;11.64;79.17;102094.09;7359684;19;19943;-61
2023/04/16 04:32:13;;;;;;;;;;;;;;;11.63;79.09;102084.53;7354131;19;20229;-61
2023/04/16 04:34:40;;;;;;;;;;;;;;;11.62;79.37;102091.59;7356718;19;20293;-61
2023/04/16 04:37:06;;;;;;;;;;;;;;;11.63;79.49;102082.72;7358515;19;20033;-62
2023/04/16 04:39:33;;;;;;;;;;;;;;;11.64;79.13;102091.47;7353487;19;19963;-62
2023/04/16 04:42:02;;;;;;;;;;;;;;;11.63;78.92;102095.09;7357414;19;19958;-61
2023/04/16 04:44:29;;;;;;;;;;;;;;;11.59;79.38;102097.13;7359753;19;20232;-61
2023/04/16 04:46:56;;;;;;;;;;;;;;;11.57;79.84;102094.63;7355491;19;19923;-61
2023/04/16 04:49:22;;;;;;;;;;;;;;;11.55;80.07;102091.28;7356798;19;20281;-61
2023/04/16 04:51:49;;;;;;;;;;;;;;;11.55;80.44;102096.53;7356957;19;19911;-62
2023/04/16 04:54:16;;;;;;;;;;;;;;;11.54;80.82;102091.38;7356959;19;21252;-61
2023/04/16 04:56:44;;;;;;;;;;;;;;;11.58;81.15;102095.44;7356748;19;19919;-62
2023/04/16 04:59:11;;;;;;;;;;;;;;;11.63;82.99;102100.34;7357536;19;19939;-62
2023/04/16 05:01:38;;;;;;;;;;;;;;;11.63;82.20;102092.44;7352445;19;19922;-60
2023/04/16 05:04:05;;;;;;;;;;;;;;;11.64;83.60;102092.28;7354297;19;19923;-62
2023/04/16 05:06:32;;;;;;;;;;;;;;;11.67;82.91;102088.59;7353822;19;19935;-61
2023/04/16 05:08:59;;;;;;;;;;;;;;;11.67;81.52;102091.22;7359327;19;19978;-62
2023/04/16 05:11:26;;;;;;;;;;;;;;;11.66;81.49;102093.00;7357320;19;20674;-61
2023/04/16 05:13:52;;;;;;;;;;;;;;;11.65;81.31;102090.50;7358436;19;19923;-63
2023/04/16 05:16:19;;;;;;;;;;;;;;;11.66;82.12;102098.28;7355853;19;20772;-62
2023/04/16 05:18:46;;;;;;;;;;;;;;;11.66;82.01;102100.09;7355193;19;20227;-61
2023/04/16 05:21:13;;;;;;;;;;;;;;;11.65;81.75;102096.63;7358460;19;19926;-61
2023/04/16 05:23:40;;;;;;;;;;;;;;;11.65;82.56;102093.13;7368831;19;19938;-60
2023/04/16 05:26:07;;;;;;;;;;;;;;;11.61;81.71;102100.47;7366920;19;19915;-60
2023/04/16 05:28:34;;;;;;;;;;;;;;;11.58;81.84;102100.72;7360308;19;19915;-65
2023/04/16 05:31:00;;;;;;;;;;;;;;;11.58;81.64;102093.63;7362329;19;19930;-61
2023/04/16 05:33:27;;;;;;;;;;;;;;;11.59;81.78;102099.75;7361653;19;20002;-60
2023/04/16 05:35:54;;;;;;;;;;;;;;;11.62;82.21;102101.31;7363333;19;20242;-62
2023/04/16 05:38:21;;;;;;;;;;;;;;;11.62;82.12;102102.16;7362004;19;19922;-61
2023/04/16 05:40:48;;;;;;;;;;;;;;;11.64;81.83;102105.47;7363076;19;19939;-61
2023/04/16 05:43:15;;;;;;;;;;;;;;;11.65;82.31;102103.69;7367349;19;21211;-62
2023/04/16 05:45:42;;;;;;;;;;;;;;;11.66;82.12;102110.63;7362730;19;19930;-63
2023/04/16 05:48:09;;;;;;;;;;;;;;;11.67;81.95;102110.50;7358955;19;19923;-61
2023/04/16 05:50:36;;;;;;;;;;;;;;;11.70;81.55;102106.78;7363043;19;19915;-63
2023/04/16 05:53:04;;;;;;;;;;;;;;;11.73;82.35;102106.56;7362198;19;19914;-62
2023/04/16 05:55:31;;;;;;;;;;;;;;;11.74;81.95;102100.31;7362407;19;19918;-63
2023/04/16 05:57:58;;;;;;;;;;;;;;;11.75;81.75;102109.88;7363866;19;19919;-62
2023/04/16 06:00:26;;;;;;;;;;;;;;;11.75;80.85;102112.53;7361232;19;20579;-61
2023/04/16 06:02:52;;;;;;;;;;;;;;;11.75;80.49;102109.88;7361825;19;19923;-62
2023/04/16 06:05:19;;;;;;;;;;;;;;;11.77;81.15;102107.97;7364379;19;19922;-61
2023/04/16 06:07:46;;;;;;;;;;;;;;;11.82;81.91;102114.53;7362560;19;19918;-62
2023/04/16 06:10:13;;;;;;;;;;;;;;;11.84;81.60;102115.22;7362892;19;19927;-61
2023/04/16 06:12:40;;;;;;;;;;;;;;;11.85;80.73;102108.16;7362428;19;19922;-61
2023/04/16 06:15:07;;;;;;;;;;;;;;;11.87;80.25;102122.06;7362638;19;20530;-62
2023/04/16 06:17:34;;;;;;;;;;;;;;;11.86;80.37;102125.66;7362537;19;20463;-61
2023/04/16 06:20:01;;;;;;;;;;;;;;;11.86;79.82;102125.66;7362824;19;20254;-61
2023/04/16 06:22:28;;;;;;;;;;;;;;;11.89;80.61;102115.66;7362335;19;20589;-62
2023/04/16 06:24:55;;;;;;;;;;;;;;;11.94;80.47;102123.19;7363336;19;19923;-60
2023/04/16 06:27:22;;;;;;;;;;;;;;;11.98;79.86;102127.28;7361453;19;19933;-62
2023/04/16 06:29:49;;;;;;;;;;;;;;;11.97;79.08;102126.44;7363963;19;19922;-63
2023/04/16 06:32:16;;;;;;;;;;;;;;;11.97;79.10;102134.34;7360345;19;20003;-65
2023/04/16 06:34:43;;;;;;;;;;;;;;;12.02;79.33;102128.69;7358061;19;19911;-62
2023/04/16 06:37:10;;;;;;;;;;;;;;;12.07;80.15;102129.13;7360085;19;20581;-62
2023/04/16 06:39:37;;;;;;;;;;;;;;;12.10;79.62;102133.28;7362836;19;19915;-62
2023/04/16 06:42:03;;;;;;;;;;;;;;;12.15;78.67;102131.09;7360445;19;20610;-62
2023/04/16 06:44:30;;;;;;;;;;;;;;;12.20;78.41;102134.16;7361470;19;19987;-61
2023/04/16 06:47:00;;;;;;;;;;;;;;;12.24;78.77;102131.13;7359957;19;20244;-61
2023/04/16 06:49:27;;;;;;;;;;;;;;;12.30;78.16;102137.69;7360819;19;19923;-61
2023/04/16 06:51:55;;;;;;;;;;;;;;;12.35;77.83;102132.88;7359309;19;19914;-62
2023/04/16 06:54:22;;;;;;;;;;;;;;;12.40;77.74;102134.13;7360464;19;20044;-61
2023/04/16 06:56:48;;;;;;;;;;;;;;;12.47;78.02;102137.09;7360590;19;19915;-65
2023/04/16 06:59:15;;;;;;;;;;;;;;;12.54;77.34;102140.06;7359377;19;19919;-61
2023/04/16 07:01:42;;;;;;;;;;;;;;;12.62;78.18;102141.03;7359265;19;19930;-62
2023/04/16 07:04:10;;;;;;;;;;;;;;;12.69;77.60;102142.19;7361171;19;19927;-62
2023/04/16 07:06:37;;;;;;;;;;;;;;;12.72;76.21;102141.91;7357211;19;20280;-63
2023/04/16 07:09:04;;;;;;;;;;;;;;;12.79;76.40;102145.69;7359408;19;20180;-61
2023/04/16 07:11:31;;;;;;;;;;;;;;;12.83;75.69;102144.47;7360629;19;19923;-61
2023/04/16 07:13:58;;;;;;;;;;;;;;;12.88;75.43;102149.34;7361872;19;20335;-61
2023/04/16 07:16:25;;;;;;;;;;;;;;;12.93;76.12;102155.03;7356981;19;19926;-61
2023/04/16 07:18:52;;;;;;;;;;;;;;;12.95;75.89;102153.13;7360281;19;19911;-62
2023/04/16 07:21:19;;;;;;;;;;;;;;;13.00;75.76;102150.06;7358853;19;19907;-60
2023/04/16 07:23:46;;;;;;;;;;;;;;;13.06;75.55;102157.41;7361021;19;19918;-60
2023/04/16 07:26:13;;;;;;;;;;;;;;;13.12;75.81;102149.81;7360801;19;19948;-61
2023/04/16 07:28:40;;;;;;;;;;;;;;;13.20;74.45;102150.00;7360190;19;19921;-60
2023/04/16 07:31:07;;;;;;;;;;;;;;;13.30;74.62;102151.81;7356818;19;19926;-62
2023/04/16 07:33:34;;;;;;;;;;;;;;;13.39;74.09;102154.47;7357718;19;21234;-61
2023/04/16 07:36:01;;;;;;;;;;;;;;;13.45;73.21;102155.72;7361449;19;19915;-62
2023/04/16 07:38:27;;;;;;;;;;;;;;;13.49;73.04;102149.19;7359520;19;19914;-62
2023/04/16 07:40:55;;;;;;;;;;;;;;;13.54;73.01;102152.25;7358261;19;19923;-61
2023/04/16 07:43:22;;;;;;;;;;;;;;;13.59;72.44;102152.66;7360084;19;19923;-60
2023/04/16 07:45:49;;;;;;;;;;;;;;;13.65;72.17;102158.22;7357164;19;19915;-61
2023/04/16 07:48:16;;;;;;;;;;;;;;;13.71;71.56;102164.78;7357879;19;20575;-63
2023/04/16 07:50:43;;;;;;;;;;;;;;;13.77;71.78;102163.34;7360759;19;20210;-61
2023/04/16 07:53:10;;;;;;;;;;;;;;;13.86;71.77;102170.47;7361126;19;21591;-62
2023/04/16 07:55:37;;;;;;;;;;;;;;;13.98;70.56;102171.97;7358354;19;19930;-62
2023/04/16 07:58:06;;;;;;;;;;;;;;;14.03;70.11;102170.56;7358643;19;19976;-62
2023/04/16 08:00:33;;;;;;;;;;;;;;;14.06;69.13;102169.47;7360038;19;20392;-60
2023/04/16 08:03:00;;;;;;;;;;;;;;;14.08;69.40;102168.31;7356097;19;20150;-63
2023/04/16 08:05:27;;;;;;;;;;;;;;;14.09;69.72;102177.94;7360627;19;19976;-63
2023/04/16 08:07:54;;;;;;;;;;;;;;;14.12;69.44;102174.16;7359485;19;19919;-62
2023/04/16 08:10:21;;;;;;;;;;;;;;;14.14;68.54;102174.88;7359946;19;19922;-61
2023/04/16 08:12:48;;;;;;;;;;;;;;;14.17;68.80;102174.56;7358724;19;20005;-62
2023/04/16 08:15:15;;;;;;;;;;;;;;;14.22;68.49;102176.81;7357978;19;19922;-62
2023/04/16 08:17:42;;;;;;;;;;;;;;;14.26;68.26;102180.84;7354566;19;19932;-59
2023/04/16 08:20:09;;;;;;;;;;;;;;;14.33;68.24;102180.09;7356429;19;19923;-60
2023/04/16 08:22:41;;;;;;;;;;;;;;;14.42;68.73;102186.41;7357800;19;19941;-61
2023/04/16 08:25:08;;;;;;;;;;;;;;;14.49;68.60;102184.84;7359774;19;19925;-60
2023/04/16 08:27:35;;;;;;;;;;;;;;;14.53;66.89;102183.56;7358201;19;20260;-61
2023/04/16 08:30:02;;;;;;;;;;;;;;;14.55;65.97;102179.81;7358054;19;20355;-60
2023/04/16 08:32:29;;;;;;;;;;;;;;;14.63;66.13;102186.19;7354892;19;19923;-59
2023/04/16 08:34:56;;;;;;;;;;;;;;;14.70;65.91;102180.16;7356602;19;19926;-60
2023/04/16 08:37:24;;;;;;;;;;;;;;;14.79;65.91;102175.78;7355461;19;19918;-60
2023/04/16 08:39:51;;;;;;;;;;;;;;;14.84;64.77;102182.31;7355417;19;19946;-59
2023/04/16 08:42:22;;;;;;;;;;;;;;;14.88;64.50;102180.22;7356085;19;19914;-59
2023/04/16 08:44:51;;;;;;;;;;;;;;;14.90;65.44;102184.38;7355332;19;19930;-60
2023/04/16 08:47:21;;;;;;;;;;;;;;;14.93;64.45;102184.06;7356945;19;19918;-59
2023/04/16 08:49:49;;;;;;;;;;;;;;;15.01;65.36;102187.81;7356110;19;19922;-59
2023/04/16 08:52:19;;;;;;;;;;;;;;;15.04;64.43;102185.69;7355468;19;19918;-59
2023/04/16 08:54:58;;;;;;;;;;;;;;;15.11;63.34;102185.94;7359023;19;20372;-57
2023/04/16 08:57:28;;;;;;;;;;;;;;;15.11;63.24;102191.25;7363489;19;20321;-58
2023/04/16 08:59:56;;;;;;;;;;;;;;;15.14;63.73;102196.25;7364191;19;19951;-57
2023/04/16 09:02:24;;;;;;;;;;;;;;;15.19;63.09;102196.63;7364132;19;19922;-59
2023/04/16 09:04:52;;;;;;;;;;;;;;;15.27;63.27;102197.56;7365767;19;20343;-59
2023/04/16 09:07:20;;;;;;;;;;;;;;;15.36;64.83;102203.78;7367175;19;19926;-58
2023/04/16 09:09:48;;;;;;;;;;;;;;;15.44;63.76;102203.06;7364857;19;19933;-57
2023/04/16 09:12:16;;;;;;;;;;;;;;;15.51;64.13;102199.66;7362159;19;19954;-59
2023/04/16 09:14:46;;;;;;;;;;;;;;;15.54;62.97;102207.34;7363491;19;19915;-63
2023/04/16 09:17:13;;;;;;;;;;;;;;;15.59;63.06;102205.06;7360991;19;20424;-58
2023/04/16 09:19:40;;;;;;;;;;;;;;;15.65;62.20;102206.25;7362792;19;19923;-59
2023/04/16 09:22:07;;;;;;;;;;;;;;;15.70;63.08;102207.47;7364264;19;19960;-59
2023/04/16 09:24:34;;;;;;;;;;;;;;;15.73;62.93;102207.19;7366640;19;19923;-60
2023/04/16 09:27:01;;;;;;;;;;;;;;;15.80;63.04;102218.00;7361044;19;19922;-59
2023/04/16 09:29:37;;;;;;;;;;;;;;;15.87;62.00;102211.13;7364327;19;20277;-60
2023/04/16 09:32:06;;;;;;;;;;;;;;;15.92;62.74;102208.00;7361006;19;20396;-58
2023/04/16 09:34:34;;;;;;;;;;;;;;;15.93;61.21;102209.66;7362210;19;20208;-60
2023/04/16 09:37:10;;;;;;;;;;;;;;;15.95;61.63;102211.16;7362483;19;20253;-62
2023/04/16 09:39:37;;;;;;;;;;;;;;;16.01;62.70;102215.03;7362282;19;19929;-59
2023/04/16 09:42:04;;;;;;;;;;;;;;;16.02;61.41;102211.41;7363392;19;19923;-60
2023/04/16 09:44:38;;;;;;;;;;;;;;;16.06;61.90;102216.25;7364859;19;19951;-62
2023/04/16 09:47:07;;;;;;;;;;;;;;;16.11;60.41;102206.00;7362252;19;19922;-60
2023/04/16 09:49:35;;;;;;;;;;;;;;;16.14;59.98;102220.78;7361301;19;20602;-60
2023/04/16 09:52:08;;;;;;;;;;;;;;;16.13;57.73;102214.66;7360861;19;19923;-59
2023/04/16 09:54:34;;;;;;;;;;;;;;;16.16;57.35;102211.66;7361504;19;20402;-60
2023/04/16 09:57:02;;;;;;;;;;;;;;;16.14;56.35;102205.69;7361371;19;20592;-59
2023/04/16 09:59:32;;;;;;;;;;;;;;;16.14;56.86;102215.47;7363793;19;19929;-60
2023/04/16 10:01:59;;;;;;;;;;;;;;;16.14;57.31;102210.16;7362599;19;19927;-60
2023/04/16 10:04:45;;;;;;;;;;;;;;;16.14;57.45;102211.00;7361893;19;19919;-59
2023/04/16 10:07:12;;;;;;;;;;;;;;;16.16;56.32;102208.19;7362950;19;20405;-65
2023/04/16 10:09:40;;;;;;;;;;;;;;;16.17;56.41;102217.81;7362700;19;19919;-63
2023/04/16 10:12:07;;;;;;;;;;;;;;;16.16;56.00;102213.50;7364003;19;19914;-58
2023/04/16 10:14:34;;;;;;;;;;;;;;;16.17;55.12;102212.50;7361744;19;19917;-59
2023/04/16 10:17:02;;;;;;;;;;;;;;;16.16;54.57;102214.31;7359008;19;20647;-59
2023/04/16 10:19:31;;;;;;;;;;;;;;;16.16;54.48;102214.31;7362269;19;19994;-57
2023/04/16 10:21:58;;;;;;;;;;;;;;;16.15;54.09;102215.31;7361686;19;20271;-59
2023/04/16 10:24:25;;;;;;;;;;;;;;;16.21;55.03;102212.03;7362602;19;19922;-60
2023/04/16 10:26:52;;;;;;;;;;;;;;;16.29;54.24;102215.75;7358434;19;20189;-61
2023/04/16 10:29:20;;;;;;;;;;;;;;;16.33;52.92;102217.94;7361081;19;19921;-59
2023/04/16 10:31:47;;;;;;;;;;;;;;;16.41;51.19;102209.16;7362973;19;19978;-63
2023/04/16 10:34:15;;;;;;;;;;;;;;;16.47;51.66;102219.19;7362146;19;19954;-59
2023/04/16 10:36:42;;;;;;;;;;;;;;;16.51;52.97;102221.38;7360879;19;20301;-58
2023/04/16 10:39:10;;;;;;;;;;;;;;;16.57;53.16;102215.41;7364105;19;19911;-65
2023/04/16 10:41:41;;;;;;;;;;;;;;;16.64;52.91;102218.31;7362103;19;19933;-57
2023/04/16 10:44:08;;;;;;;;;;;;;;;16.70;52.44;102215.03;7362450;19;20333;-61
2023/04/16 10:46:38;;;;;;;;;;;;;;;16.68;51.62;102220.50;7358528;19;19974;-61
2023/04/16 10:49:14;;;;;;;;;;;;;;;16.66;52.49;102214.50;7359986;19;19943;-61
2023/04/16 10:51:41;;;;;;;;;;;;;;;16.67;52.81;102210.03;7361405;19;19927;-59
2023/04/16 10:54:13;;;;;;;;;;;;;;;16.71;50.95;102211.38;7361492;19;19919;-59
2023/04/16 10:56:40;;;;;;;;;;;;;;;16.72;51.64;102223.66;7363238;19;20570;-59
2023/04/16 10:59:09;;;;;;;;;;;;;;;16.75;50.36;102226.03;7364610;19;19925;-60
2023/04/16 11:01:39;;;;;;;;;;;;;;;16.74;50.93;102218.22;7361365;19;20582;-60
2023/04/16 11:04:17;;;;;;;;;;;;;;;16.71;51.24;102210.56;7362250;19;20200;-62
2023/04/16 11:06:53;;;;;;;;;;;;;;;16.70;50.76;102207.06;7358569;19;19982;-63
2023/04/16 11:09:29;;;;;;;;;;;;;;;16.72;51.26;102206.88;7364534;19;19926;-62
2023/04/16 11:11:56;;;;;;;;;;;;;;;16.72;50.95;102210.38;7361842;19;19918;-60
2023/04/16 11:14:23;;;;;;;;;;;;;;;16.77;51.24;102201.94;7365595;19;20020;-59
2023/04/16 11:16:50;;;;;;;;;;;;;;;16.79;50.57;102197.28;7362388;19;19936;-61
2023/04/16 11:19:17;;;;;;;;;;;;;;;16.80;49.60;102205.13;7360804;19;19926;-61
2023/04/16 11:21:45;;;;;;;;;;;;;;;16.78;49.63;102206.25;7362970;19;20569;-61
2023/04/16 11:24:11;;;;;;;;;;;;;;;16.79;50.07;102214.09;7365727;19;19962;-63
2023/04/16 11:26:38;;;;;;;;;;;;;;;16.81;50.23;102198.78;7360374;19;20182;-58
2023/04/16 11:29:12;;;;;;;;;;;;;;;16.83;49.94;102207.44;7359408;19;19931;-61
2023/04/16 11:31:39;;;;;;;;;;;;;;;16.88;49.50;102199.00;7358320;19;19922;-62
2023/04/16 11:34:07;;;;;;;;;;;;;;;16.87;48.65;102195.50;7358031;19;20413;-61
2023/04/16 11:36:41;;;;;;;;;;;;;;;16.90;50.44;102203.16;7356214;19;19918;-61
2023/04/16 11:39:08;;;;;;;;;;;;;;;16.93;50.41;102202.84;7362494;19;19915;-61
2023/04/16 11:41:46;;;;;;;;;;;;;;;16.97;51.85;102201.53;7359822;19;19930;-62
2023/04/16 11:44:22;;;;;;;;;;;;;;;17.04;52.40;102207.03;7361005;19;20489;-65
2023/04/16 11:46:50;;;;;;;;;;;;;;;17.09;51.80;102202.91;7356066;19;19925;-60
2023/04/16 11:49:25;;;;;;;;;;;;;;;17.10;49.40;102195.75;7354958;19;19922;-61
2023/04/16 11:51:54;;;;;;;;;;;;;;;17.15;50.96;102196.09;7358164;19;19923;-61
2023/04/16 11:54:21;;;;;;;;;;;;;;;17.18;50.07;102195.78;7356213;19;19922;-61
2023/04/16 11:56:49;;;;;;;;;;;;;;;17.22;50.09;102196.31;7357650;19;21467;-59
2023/04/16 11:59:18;;;;;;;;;;;;;;;17.24;49.19;102200.44;7361759;19;19922;-61
2023/04/16 12:01:47;;;;;;;;;;;;;;;17.23;49.60;102195.28;7359053;19;20319;-62
2023/04/16 12:04:15;;;;;;;;;;;;;;;17.23;49.18;102190.78;7359684;19;19926;-59
2023/04/16 12:06:51;;;;;;;;;;;;;;;17.28;47.53;102196.47;7360180;19;19926;-61
2023/04/16 12:09:27;;;;;;;;;;;;;;;17.31;48.36;102204.13;7357823;19;19928;-61
2023/04/16 12:11:54;;;;;;;;;;;;;;;17.32;48.11;102202.31;7358587;19;19974;-61
2023/04/16 12:14:21;;;;;;;;;;;;;;;17.29;48.00;102203.44;7356759;19;20023;-61
2023/04/16 12:16:48;;;;;;;;;;;;;;;17.30;47.71;102193.66;7356289;19;20383;-62
2023/04/16 12:19:16;;;;;;;;;;;;;;;17.26;47.93;102200.28;7361797;19;19919;-67
2023/04/16 12:21:44;;;;;;;;;;;;;;;17.28;48.02;102196.47;7360600;19;20309;-62
2023/04/16 12:24:13;;;;;;;;;;;;;;;17.30;47.94;102196.31;7357319;19;20519;-59
2023/04/16 12:26:42;;;;;;;;;;;;;;;17.27;48.14;102186.81;7359587;19;19919;-60
2023/04/16 12:29:18;;;;;;;;;;;;;;;17.27;47.50;102192.13;7357850;19;20026;-61
2023/04/16 12:31:46;;;;;;;;;;;;;;;17.37;48.55;102192.00;7358583;19;19946;-60
2023/04/16 12:34:14;;;;;;;;;;;;;;;17.43;48.02;102181.53;7366626;19;19919;-61
2023/04/16 12:36:41;;;;;;;;;;;;;;;17.49;47.95;102185.34;7363098;19;19929;-59
2023/04/16 12:39:09;;;;;;;;;;;;;;;17.53;47.53;102181.38;7366561;19;20817;-62